Time;durP1;ratioP1;P1;durP2;ratioP2;P2;SDS_P1;SDS_P2;PMS_P1;PMS_P2;Temp;Humidity;BMP_temperature;BMP_pressure;BME280_temperature;BME280_humidity;BME280_pressure;Samples;Min_cycle;Max_cycle;Signal;HPM_P1;HPM_P2
2023/09/05 00:02:24;;;;;;;4.60;2.30;;;;;;;19.74;54.42;98922.66;4896851;29;20032;-69
2023/09/05 00:04:53;;;;;;;4.85;2.42;;;;;;;19.80;54.47;98938.72;4895611;29;20044;-69
2023/09/05 00:07:18;;;;;;;3.15;2.40;;;;;;;19.75;54.30;98937.94;4895851;29;20120;-69
2023/09/05 00:09:44;;;;;;;3.47;2.30;;;;;;;19.78;54.07;98940.09;4895685;29;20081;-69
2023/09/05 00:12:09;;;;;;;4.85;2.33;;;;;;;19.76;54.17;98947.78;4895460;29;20028;-69
2023/09/05 00:14:35;;;;;;;3.47;2.17;;;;;;;19.74;54.38;98939.84;4895648;29;20091;-70
2023/09/05 00:17:01;;;;;;;3.17;2.53;;;;;;;19.75;54.31;98935.19;4879963;29;20036;-70
2023/09/05 00:19:26;;;;;;;3.53;2.20;;;;;;;19.78;54.23;98940.94;4895434;29;20059;-71
2023/09/05 00:21:51;;;;;;;3.88;2.35;;;;;;;19.77;54.22;98933.00;4895182;29;20056;-72
2023/09/05 00:24:31;;;;;;;2.53;2.28;;;;;;;19.76;53.89;98936.84;4895429;29;20072;-71
2023/09/05 00:27:01;;;;;;;2.88;2.15;;;;;;;19.80;53.64;98937.91;4879824;29;20041;-71
2023/09/05 00:29:27;;;;;;;3.08;2.40;;;;;;;19.67;53.87;98927.63;4896248;29;20044;-71
2023/09/05 00:31:54;;;;;;;4.35;2.10;;;;;;;19.78;53.96;98940.94;4896050;29;20455;-72
2023/09/05 00:34:19;;;;;;;2.50;1.92;;;;;;;19.77;53.42;98943.94;4895214;29;20051;-72
2023/09/05 00:36:47;;;;;;;2.80;2.10;;;;;;;19.80;53.47;98943.38;4896386;29;20052;-71
2023/09/05 00:39:13;;;;;;;2.88;2.05;;;;;;;19.78;53.35;98940.09;4895231;29;20033;-71
2023/09/05 00:41:38;;;;;;;3.22;2.20;;;;;;;19.67;53.87;98928.44;4879355;29;20407;-71
2023/09/05 00:44:04;;;;;;;3.13;1.95;;;;;;;19.74;53.65;98933.59;4907413;29;20047;-71
2023/09/05 00:46:32;;;;;;;3.08;2.22;;;;;;;19.64;53.62;98909.88;4900271;29;20024;-71
2023/09/05 00:49:02;;;;;;;3.22;2.22;;;;;;;19.71;53.58;98925.94;4895720;29;20045;-73
2023/09/05 00:51:29;;;;;;;2.85;2.10;;;;;;;19.69;53.89;98930.88;4880232;29;20040;-73
2023/09/05 00:53:54;;;;;;;3.05;1.90;;;;;;;19.55;54.02;98932.63;4894900;29;20157;-73
2023/09/05 00:56:20;;;;;;;3.72;2.20;;;;;;;19.68;53.65;98942.91;4894341;29;20571;-73
2023/09/05 00:58:45;;;;;;;2.40;2.15;;;;;;;19.56;54.19;98936.97;4879559;29;20072;-73
2023/09/05 01:01:11;;;;;;;3.53;2.70;;;;;;;19.56;54.08;98936.97;4895953;29;20130;-72
2023/09/05 01:03:37;;;;;;;3.95;2.30;;;;;;;19.63;53.92;98949.22;4896316;29;20054;-73
2023/09/05 01:06:09;;;;;;;3.50;2.50;;;;;;;19.54;54.00;98933.72;4894998;29;20393;-73
2023/09/05 01:09:03;;;;;;;4.63;2.30;;;;;;;19.63;53.80;98942.94;4879747;29;20080;-72
2023/09/05 01:11:29;;;;;;;2.92;2.17;;;;;;;19.58;54.19;98940.28;4869343;29;20060;-71
2023/09/05 01:13:54;;;;;;;2.45;2.00;;;;;;;19.60;54.72;98944.34;4879259;29;20029;-71
2023/09/05 01:16:20;;;;;;;3.92;2.00;;;;;;;19.50;54.18;98933.50;4896158;29;20045;-73
2023/09/05 01:18:46;;;;;;;3.42;2.20;;;;;;;19.53;54.31;98948.50;4894857;29;20531;-69
2023/09/05 01:21:40;;;;;;;3.38;2.30;;;;;;;19.57;54.16;98949.56;4879169;29;20029;-73
2023/09/05 01:24:16;;;;;;;4.50;2.42;;;;;;;19.56;54.05;98947.91;4895125;29;20047;-73
2023/09/05 01:26:43;;;;;;;3.35;2.50;;;;;;;19.53;54.28;98959.44;4879436;29;20560;-72
2023/09/05 01:29:09;;;;;;;2.83;2.40;;;;;;;19.50;54.31;98951.78;4879469;29;20032;-70
2023/09/05 01:31:34;;;;;;;4.55;2.50;;;;;;;19.50;54.16;98938.13;4879116;29;20123;-72
2023/09/05 01:34:00;;;;;;;2.85;1.90;;;;;;;19.54;54.07;98950.13;4863718;29;20480;-73
2023/09/05 01:36:25;;;;;;;3.58;2.10;;;;;;;19.55;54.02;98954.50;4878892;29;20041;-69
2023/09/05 01:38:50;;;;;;;2.53;2.20;;;;;;;19.52;54.06;98957.78;4894689;29;20104;-68
2023/09/05 01:41:16;;;;;;;2.90;2.30;;;;;;;19.54;54.12;98950.13;4894288;29;20037;-67
2023/09/05 01:43:41;;;;;;;3.45;2.33;;;;;;;19.53;54.24;98959.44;4904180;29;20028;-69
2023/09/05 01:46:07;;;;;;;2.70;2.10;;;;;;;19.42;54.41;98936.00;4892061;29;20047;-72
2023/09/05 01:48:32;;;;;;;3.45;2.08;;;;;;;19.46;54.51;98937.06;4895764;29;20029;-70
2023/09/05 01:50:57;;;;;;;2.60;2.40;;;;;;;19.45;54.73;98938.16;4894211;29;20046;-70
2023/09/05 01:53:24;;;;;;;3.80;2.55;;;;;;;19.49;54.49;98950.13;4894705;29;20067;-69
2023/09/05 01:55:49;;;;;;;2.33;2.13;;;;;;;19.45;54.62;98946.34;4894382;29;20040;-70
2023/09/05 01:58:15;;;;;;;3.95;2.15;;;;;;;19.47;54.37;98955.09;4879134;29;20039;-71
2023/09/05 02:00:40;;;;;;;4.45;2.40;;;;;;;19.43;54.33;98943.09;4894516;29;20033;-70
2023/09/05 02:03:06;;;;;;;3.95;2.30;;;;;;;19.47;54.68;98952.34;4878753;29;20040;-72
2023/09/05 02:05:31;;;;;;;3.90;2.40;;;;;;;19.46;54.45;98948.81;4895632;29;20039;-73
2023/09/05 02:07:56;;;;;;;4.30;2.28;;;;;;;19.45;54.43;98949.09;4897884;29;20024;-72
2023/09/05 02:10:22;;;;;;;3.05;2.30;;;;;;;19.44;54.40;98944.75;4897778;29;20119;-73
2023/09/05 02:12:49;;;;;;;3.33;2.25;;;;;;;19.46;54.05;98950.72;4866983;29;20036;-73
2023/09/05 02:15:14;;;;;;;4.47;2.58;;;;;;;19.32;54.47;98937.66;4897917;29;20064;-73
2023/09/05 02:17:40;;;;;;;2.65;2.30;;;;;;;19.37;54.39;98939.56;4899197;29;20062;-73
2023/09/05 02:20:06;;;;;;;3.72;2.13;;;;;;;19.32;54.28;98934.91;4897509;29;20040;-73
2023/09/05 02:22:31;;;;;;;4.38;2.22;;;;;;;19.38;54.24;98940.38;4878741;29;20088;-73
2023/09/05 02:24:57;;;;;;;2.72;2.10;;;;;;;19.27;54.51;98926.78;4907869;29;20043;-72
2023/09/05 02:27:22;;;;;;;2.85;2.03;;;;;;;19.28;54.46;98939.31;4898948;29;20410;-71
2023/09/05 02:29:49;;;;;;;6.80;2.33;;;;;;;19.28;54.00;98939.31;4881899;29;20037;-72
2023/09/05 02:32:17;;;;;;;3.85;2.22;;;;;;;19.37;54.27;98944.25;4898548;29;20060;-73
2023/09/05 02:34:43;;;;;;;4.00;2.55;;;;;;;19.36;53.99;98948.06;4881660;29;20123;-74
2023/09/05 02:37:08;;;;;;;3.55;2.20;;;;;;;19.18;54.22;98925.72;4881526;29;20101;-73
2023/09/05 02:39:33;;;;;;;3.35;2.38;;;;;;;19.24;54.19;98941.00;4897126;29;20041;-73
2023/09/05 02:41:59;;;;;;;3.90;2.28;;;;;;;19.24;54.26;98935.53;4881537;29;20045;-73
2023/09/05 02:44:24;;;;;;;2.97;2.05;;;;;;;19.28;54.52;98941.22;4910872;29;20088;-73
2023/09/05 02:46:51;;;;;;;3.60;2.03;;;;;;;19.23;54.44;98944.81;4884625;29;20055;-72
2023/09/05 02:49:16;;;;;;;3.45;2.30;;;;;;;19.25;54.25;98947.28;4898189;29;20119;-72
2023/09/05 02:51:41;;;;;;;2.72;1.80;;;;;;;19.23;54.72;98944.81;4890937;29;20112;-73
2023/09/05 02:54:07;;;;;;;3.67;2.22;;;;;;;19.16;54.62;98944.31;4898360;29;20036;-74
2023/09/05 02:56:33;;;;;;;3.05;2.30;;;;;;;19.12;54.90;98953.34;4881544;29;20044;-74
2023/09/05 02:58:58;;;;;;;3.60;2.30;;;;;;;18.98;55.15;98923.13;4896983;29;20067;-73
2023/09/05 03:01:24;;;;;;;4.40;2.78;;;;;;;19.04;55.29;98934.84;4898358;29;20024;-72
2023/09/05 03:03:50;;;;;;;4.97;2.33;;;;;;;18.97;55.71;98929.69;4881322;29;20456;-73
2023/09/05 03:06:16;;;;;;;2.80;2.40;;;;;;;18.89;55.48;98923.97;4881422;29;20060;-74
2023/09/05 03:08:44;;;;;;;3.67;2.10;;;;;;;18.87;55.87;98939.81;4886067;29;20033;-74
2023/09/05 03:11:11;;;;;;;3.60;2.35;;;;;;;18.78;55.80;98936.03;4896469;29;20020;-75
2023/09/05 03:13:37;;;;;;;2.70;2.00;;;;;;;18.73;56.46;98939.63;4881127;29;20036;-74
2023/09/05 03:16:02;;;;;;;3.65;2.17;;;;;;;18.68;56.42;98936.06;4897992;29;20033;-73
2023/09/05 03:18:29;;;;;;;3.25;2.30;;;;;;;18.68;56.69;98947.81;4880733;29;20036;-71
2023/09/05 03:20:54;;;;;;;3.50;2.15;;;;;;;18.67;57.00;98940.72;4896432;29;20024;-71
2023/09/05 03:23:19;;;;;;;3.45;2.33;;;;;;;18.56;57.07;98945.41;4897472;29;20078;-72
2023/09/05 03:25:45;;;;;;;5.78;2.55;;;;;;;18.56;57.19;98950.03;4880696;29;20036;-71
2023/09/05 03:28:13;;;;;;;3.10;2.10;;;;;;;18.59;56.68;98946.75;4880461;29;20123;-73
2023/09/05 03:30:42;;;;;;;5.35;2.15;;;;;;;18.62;56.61;98951.66;4896131;29;20377;-71
2023/09/05 03:33:08;;;;;;;2.78;2.35;;;;;;;18.59;57.10;98954.94;4880064;29;20052;-75
2023/09/05 03:35:34;;;;;;;3.17;2.42;;;;;;;18.57;57.00;98952.50;4880791;29;20033;-73
2023/09/05 03:38:00;;;;;;;3.60;2.40;;;;;;;18.51;57.70;98952.75;4897503;29;20100;-72
2023/09/05 03:40:26;;;;;;;3.35;2.22;;;;;;;18.47;57.84;98951.69;4896200;29;20024;-72
2023/09/05 03:42:51;;;;;;;4.15;2.67;;;;;;;18.28;58.12;98937.78;4897437;29;20036;-72
2023/09/05 03:45:21;;;;;;;2.92;2.40;;;;;;;18.21;58.57;98942.72;4890872;29;20024;-72
2023/09/05 03:47:46;;;;;;;3.83;2.38;;;;;;;18.28;58.39;98950.59;4895798;29;20079;-72
2023/09/05 03:50:13;;;;;;;2.88;2.13;;;;;;;18.12;59.24;98941.66;4880075;29;20661;-71
2023/09/05 03:52:38;;;;;;;4.30;2.33;;;;;;;18.07;59.37;98936.19;4880230;29;20112;-70
2023/09/05 03:55:05;;;;;;;3.65;2.45;;;;;;;18.05;59.57;98938.38;4880224;29;20061;-71
2023/09/05 03:57:30;;;;;;;4.68;2.50;;;;;;;18.04;59.42;98935.94;4895963;29;20036;-71
2023/09/05 03:59:55;;;;;;;3.97;2.28;;;;;;;18.07;59.23;98930.75;4880249;29;20028;-72
2023/09/05 04:02:21;;;;;;;4.88;2.30;;;;;;;18.09;59.17;98928.56;4895470;29;20054;-72
2023/09/05 04:04:46;;;;;;;2.67;2.38;;;;;;;18.09;59.28;98927.72;4895312;29;20033;-71
2023/09/05 04:07:12;;;;;;;3.25;2.35;;;;;;;18.03;59.37;98926.13;4895384;29;20089;-71
2023/09/05 04:09:38;;;;;;;2.70;2.20;;;;;;;18.13;58.98;98929.66;4895597;29;20061;-74
2023/09/05 04:12:03;;;;;;;2.75;2.47;;;;;;;18.07;58.71;98925.28;4879971;29;20064;-72
2023/09/05 04:14:29;;;;;;;3.38;2.35;;;;;;;18.05;58.96;98926.66;4880368;29;20447;-74
2023/09/05 04:16:54;;;;;;;3.95;2.35;;;;;;;18.00;58.76;98918.47;4896111;29;20639;-73
2023/09/05 04:19:20;;;;;;;4.50;2.55;;;;;;;18.05;58.98;98916.56;4896952;29;20056;-74
2023/09/05 04:21:45;;;;;;;3.58;2.30;;;;;;;18.12;59.06;98927.19;4882046;29;20032;-73
2023/09/05 04:24:10;;;;;;;3.17;2.55;;;;;;;17.89;59.25;98895.88;4884072;29;20032;-74
2023/09/05 04:26:37;;;;;;;3.45;2.70;;;;;;;17.99;59.06;98911.41;4884306;29;20048;-74
2023/09/05 04:29:04;;;;;;;4.15;2.42;;;;;;;18.05;59.12;98926.66;4897198;29;20499;-75
2023/09/05 04:31:30;;;;;;;4.38;2.60;;;;;;;18.11;59.05;98925.56;4903281;29;20043;-74
2023/09/05 04:33:55;;;;;;;5.03;2.40;;;;;;;18.12;59.06;98916.28;4880450;29;20029;-73
2023/09/05 04:36:22;;;;;;;2.90;2.28;;;;;;;18.04;58.97;98903.22;4896280;29;20487;-73
2023/09/05 04:38:50;;;;;;;5.55;2.75;;;;;;;18.09;59.11;98922.28;4895035;29;20540;-72
2023/09/05 04:41:15;;;;;;;3.58;2.67;;;;;;;18.00;59.65;98911.13;4879088;29;20028;-74
2023/09/05 04:43:41;;;;;;;3.92;2.58;;;;;;;17.94;60.03;98902.16;4877922;29;20065;-73
2023/09/05 04:46:08;;;;;;;5.32;2.50;;;;;;;17.99;59.78;98900.50;4894536;29;20411;-73
2023/09/05 04:48:33;;;;;;;3.83;2.63;;;;;;;18.07;60.05;98913.56;4894763;29;20088;-73
2023/09/05 04:51:01;;;;;;;5.15;2.50;;;;;;;17.88;60.46;98889.63;4863381;29;20041;-71
2023/09/05 04:53:28;;;;;;;4.78;2.80;;;;;;;18.00;60.03;98902.13;4894848;29;20051;-73
2023/09/05 04:55:56;;;;;;;4.07;2.58;;;;;;;18.04;60.29;98908.69;4879188;29;20491;-74
2023/09/05 04:58:22;;;;;;;5.60;2.67;;;;;;;18.00;60.21;98902.13;4894753;29;20028;-74
2023/09/05 05:00:49;;;;;;;3.13;2.53;;;;;;;18.16;60.01;98914.63;4878979;29;20084;-74
2023/09/05 05:03:15;;;;;;;4.00;2.42;;;;;;;18.16;60.41;98914.63;4894353;29;20032;-72
2023/09/05 05:05:40;;;;;;;4.75;2.40;;;;;;;18.05;60.41;98904.84;4895646;29;20435;-73
2023/09/05 05:08:05;;;;;;;3.53;2.67;;;;;;;18.09;60.49;98905.91;4878948;29;20487;-73
2023/09/05 05:10:33;;;;;;;4.35;2.50;;;;;;;18.05;60.52;98902.94;4879066;29;20032;-73
2023/09/05 05:12:59;;;;;;;5.22;2.40;;;;;;;18.11;60.55;98914.66;4894624;29;20032;-73
2023/09/05 05:15:24;;;;;;;3.13;2.80;;;;;;;18.19;60.46;98925.00;4894856;29;20040;-73
2023/09/05 05:17:50;;;;;;;4.53;2.65;;;;;;;18.16;60.78;98922.81;4879205;29;20028;-72
2023/09/05 05:20:17;;;;;;;4.82;2.97;;;;;;;18.18;60.53;98921.44;4879125;29;20044;-72
2023/09/05 05:22:42;;;;;;;4.93;2.60;;;;;;;18.16;60.68;98912.72;4879004;29;20692;-71
2023/09/05 05:25:08;;;;;;;3.60;2.70;;;;;;;18.16;60.58;98906.47;4894497;29;20061;-72
2023/09/05 05:27:33;;;;;;;6.32;2.97;;;;;;;17.98;60.74;98879.78;4894623;29;20028;-74
2023/09/05 05:29:59;;;;;;;3.63;2.85;;;;;;;18.28;60.79;98920.59;4895819;29;20447;-72
2023/09/05 05:32:24;;;;;;;4.45;2.80;;;;;;;18.33;60.69;98915.16;4878666;29;20040;-72
2023/09/05 05:34:49;;;;;;;3.55;2.78;;;;;;;18.38;60.66;98906.97;4894569;29;20039;-73
2023/09/05 05:37:16;;;;;;;4.05;2.60;;;;;;;18.41;60.88;98914.59;4896052;29;20546;-73
2023/09/05 05:39:41;;;;;;;3.28;2.58;;;;;;;18.29;61.11;98905.91;4894466;29;20093;-74
2023/09/05 05:42:07;;;;;;;5.10;2.42;;;;;;;18.37;60.80;98905.31;4881270;29;20025;-76
2023/09/05 05:44:32;;;;;;;3.13;2.40;;;;;;;18.48;61.16;98915.16;4894330;29;20056;-74
2023/09/05 05:46:58;;;;;;;4.65;2.60;;;;;;;18.44;61.37;98908.56;4897934;29;20104;-72
2023/09/05 05:49:28;;;;;;;3.50;2.60;;;;;;;18.38;61.39;98894.16;4899178;29;20040;-72
2023/09/05 05:51:57;;;;;;;4.80;2.90;;;;;;;18.44;61.16;98906.66;4891440;29;20123;-72
2023/09/05 05:54:23;;;;;;;4.35;2.70;;;;;;;18.39;60.97;98900.44;4897850;29;20084;-72
2023/09/05 05:56:50;;;;;;;5.28;2.65;;;;;;;18.43;61.43;98901.50;4898998;29;20450;-72
2023/09/05 05:59:16;;;;;;;5.75;2.80;;;;;;;18.59;61.65;98916.75;4897740;29;20025;-71
2023/09/05 06:01:41;;;;;;;4.78;2.90;;;;;;;18.63;61.11;98928.72;4898650;29;20399;-72
2023/09/05 06:04:06;;;;;;;3.45;2.50;;;;;;;18.66;61.16;98914.53;4898838;29;20032;-73
2023/09/05 06:06:32;;;;;;;4.97;3.00;;;;;;;18.71;61.34;98919.97;4899036;29;20040;-73
2023/09/05 06:08:57;;;;;;;4.55;2.45;;;;;;;18.74;60.82;98913.94;4882040;29;20056;-72
2023/09/05 06:11:22;;;;;;;2.63;2.42;;;;;;;18.74;61.39;98913.94;4897451;29;20087;-73
2023/09/05 06:13:51;;;;;;;3.10;2.35;;;;;;;18.84;61.02;98927.56;4897606;29;20045;-72
2023/09/05 06:16:17;;;;;;;5.30;2.30;;;;;;;18.66;61.25;98879.06;4897402;29;20411;-72
2023/09/05 06:18:43;;;;;;;5.03;2.55;;;;;;;18.85;61.04;98915.53;4897834;29;20029;-74
2023/09/05 06:21:08;;;;;;;2.92;2.60;;;;;;;19.01;60.59;98922.56;4881966;29;20049;-73
2023/09/05 06:23:35;;;;;;;2.67;2.33;;;;;;;19.09;60.69;98921.94;4897752;29;20084;-73
2023/09/05 06:26:00;;;;;;;3.55;2.20;;;;;;;19.12;60.55;98910.47;4881857;29;20684;-73
2023/09/05 06:28:26;;;;;;;3.75;2.63;;;;;;;19.09;59.27;98894.66;4897427;29;20029;-72
2023/09/05 06:30:56;;;;;;;5.10;2.45;;;;;;;19.21;60.00;98930.63;4897250;29;20041;-72
2023/09/05 06:33:21;;;;;;;3.15;2.58;;;;;;;19.16;60.65;98908.81;4897180;29;20036;-73
2023/09/05 06:35:46;;;;;;;3.17;2.60;;;;;;;19.26;60.58;98914.22;4897260;29;20035;-73
2023/09/05 06:38:14;;;;;;;3.17;2.35;;;;;;;19.29;60.44;98910.09;4881487;29;20128;-73
2023/09/05 06:40:40;;;;;;;4.03;2.42;;;;;;;19.35;60.46;98913.63;4898109;29;20077;-72
2023/09/05 06:43:06;;;;;;;3.58;2.70;;;;;;;19.27;60.26;98896.75;4880969;29;20048;-73
2023/09/05 06:45:31;;;;;;;3.45;2.58;;;;;;;19.46;60.29;98915.22;4896858;29;20032;-73
2023/09/05 06:47:56;;;;;;;3.17;2.30;;;;;;;19.38;60.23;98885.75;4896965;29;20491;-73
2023/09/05 06:50:22;;;;;;;3.50;2.75;;;;;;;19.65;60.32;98921.63;4881348;29;20111;-72
2023/09/05 06:52:48;;;;;;;3.75;2.42;;;;;;;19.67;59.90;98903.84;4897097;29;20131;-74
2023/09/05 06:55:13;;;;;;;3.53;2.65;;;;;;;19.76;59.67;98898.56;4898101;29;20029;-73
2023/09/05 06:57:39;;;;;;;4.22;2.70;;;;;;;19.75;59.69;98894.19;4896851;29;20037;-72
2023/09/05 07:00:05;;;;;;;3.28;2.33;;;;;;;20.00;59.65;98915.84;4896454;29;20025;-73
2023/09/05 07:02:30;;;;;;;2.63;2.35;;;;;;;20.14;59.10;98916.78;4896431;29;20384;-72
2023/09/05 07:04:56;;;;;;;3.53;2.42;;;;;;;20.27;58.66;98915.34;4896711;29;20039;-73
2023/09/05 07:07:22;;;;;;;4.32;2.53;;;;;;;20.35;58.32;98917.47;4880846;29;20037;-73
2023/09/05 07:09:48;;;;;;;5.20;2.70;;;;;;;20.43;57.99;98909.41;4881006;29;20087;-74
2023/09/05 07:12:13;;;;;;;3.03;2.15;;;;;;;20.41;58.07;98917.09;4896221;29;20032;-73
2023/09/05 07:14:39;;;;;;;3.30;2.40;;;;;;;20.51;57.80;98925.19;4896273;29;20459;-73
2023/09/05 07:17:07;;;;;;;4.32;2.63;;;;;;;20.53;57.67;98909.31;4896420;29;20174;-72
2023/09/05 07:19:32;;;;;;;3.35;2.13;;;;;;;20.62;57.74;98912.22;4880864;29;20106;-75
2023/09/05 07:21:57;;;;;;;3.03;2.40;;;;;;;20.62;57.31;98899.34;4880634;29;20044;-71
2023/09/05 07:24:23;;;;;;;3.15;2.10;;;;;;;20.71;57.24;98921.41;4897336;29;20036;-72
2023/09/05 07:26:48;;;;;;;4.57;2.40;;;;;;;20.77;56.76;98919.44;4880644;29;20037;-72
2023/09/05 07:29:15;;;;;;;3.10;2.47;;;;;;;20.76;56.78;98906.84;4896172;29;20373;-72
2023/09/05 07:31:41;;;;;;;3.50;2.40;;;;;;;20.93;56.26;98923.59;4897168;29;20040;-74
2023/09/05 07:34:07;;;;;;;3.20;2.17;;;;;;;21.02;55.97;98927.31;4880412;29;20037;-72
2023/09/05 07:36:34;;;;;;;7.93;2.58;;;;;;;21.00;55.74;98924.06;4911862;29;20041;-72
2023/09/05 07:39:01;;;;;;;4.35;2.30;;;;;;;21.04;55.74;98915.00;4896210;29;20055;-73
2023/09/05 07:41:28;;;;;;;3.47;2.00;;;;;;;21.15;55.34;98932.09;4880306;29;20451;-73
2023/09/05 07:43:54;;;;;;;3.13;1.98;;;;;;;21.25;55.48;98929.22;4882236;29;20506;-72
2023/09/05 07:46:20;;;;;;;3.38;2.20;;;;;;;21.30;55.28;98923.66;4911699;29;20036;-72
2023/09/05 07:48:46;;;;;;;2.75;2.00;;;;;;;21.32;55.23;98927.75;4871003;29;20033;-72
2023/09/05 07:51:11;;;;;;;4.07;2.00;;;;;;;21.37;55.11;98924.09;4908477;29;20044;-72
2023/09/05 07:53:37;;;;;;;4.00;2.42;;;;;;;21.45;55.45;98926.16;4895818;29;20029;-73
2023/09/05 07:56:03;;;;;;;3.38;2.20;;;;;;;21.58;54.95;98925.44;4896963;29;20060;-73
2023/09/05 07:58:29;;;;;;;2.42;2.20;;;;;;;21.63;54.77;98939.06;4896947;29;20033;-73
2023/09/05 08:00:55;;;;;;;4.10;2.20;;;;;;;21.71;54.47;98941.13;4880024;29;20052;-77
2023/09/05 08:03:21;;;;;;;3.80;2.13;;;;;;;21.67;54.63;98929.13;4879973;29;20089;-73
2023/09/05 08:05:48;;;;;;;4.07;2.20;;;;;;;21.81;54.21;98940.97;4895414;29;20048;-75
2023/09/05 08:08:14;;;;;;;3.28;2.00;;;;;;;21.88;54.21;98935.94;4880112;29;20028;-73
2023/09/05 08:10:40;;;;;;;2.65;2.20;;;;;;;21.85;54.12;98931.03;4879888;29;20045;-72
2023/09/05 08:13:06;;;;;;;3.03;2.22;;;;;;;21.89;54.26;98934.03;4895371;29;20025;-73
2023/09/05 08:15:32;;;;;;;3.88;2.40;;;;;;;22.01;53.99;98926.94;4896646;29;20071;-72
2023/09/05 08:17:57;;;;;;;4.47;2.20;;;;;;;22.16;54.21;98936.84;4895418;29;20099;-75
2023/09/05 08:20:23;;;;;;;4.35;2.30;;;;;;;22.23;53.24;98936.44;4896370;29;20706;-72
2023/09/05 08:22:48;;;;;;;2.63;2.13;;;;;;;22.27;53.33;98931.97;4896404;29;20111;-72
2023/09/05 08:25:15;;;;;;;3.80;1.88;;;;;;;22.35;53.24;98929.34;4896432;29;20483;-73
2023/09/05 08:27:41;;;;;;;2.00;1.75;;;;;;;22.36;52.68;98919.97;4895227;29;20036;-72
2023/09/05 08:30:11;;;;;;;2.88;2.25;;;;;;;22.54;52.74;98941.03;4895277;29;20101;-73
2023/09/05 08:32:38;;;;;;;3.47;2.20;;;;;;;22.60;53.06;98937.13;4894875;29;20038;-73
2023/09/05 08:35:05;;;;;;;3.22;2.15;;;;;;;22.60;52.19;98923.41;4895011;29;20111;-74
2023/09/05 08:37:30;;;;;;;2.65;2.20;;;;;;;22.68;52.26;98927.38;4895169;29;20547;-74
2023/09/05 08:39:56;;;;;;;3.88;2.08;;;;;;;22.83;52.20;98924.28;4896209;29;20076;-73
2023/09/05 08:42:23;;;;;;;3.60;2.22;;;;;;;22.90;52.76;98926.63;4894877;29;20088;-73
2023/09/05 08:44:49;;;;;;;3.22;2.25;;;;;;;22.97;52.49;98927.84;4896121;29;20131;-74
2023/09/05 08:47:14;;;;;;;2.92;2.17;;;;;;;22.98;52.44;98918.50;4879213;29;20403;-74
2023/09/05 08:49:40;;;;;;;2.40;1.90;;;;;;;23.14;52.21;98924.47;4895832;29;20052;-74
2023/09/05 08:52:06;;;;;;;3.95;1.88;;;;;;;23.20;51.54;98918.53;4895801;29;20021;-74
2023/09/05 08:54:31;;;;;;;2.47;1.80;;;;;;;23.16;51.17;98917.53;4879267;29;20032;-73
2023/09/05 08:56:58;;;;;;;4.68;1.98;;;;;;;23.29;51.58;98922.19;4879303;29;20494;-74
2023/09/05 08:59:25;;;;;;;3.45;2.30;;;;;;;23.30;51.69;98912.81;4879422;29;20100;-72
2023/09/05 09:01:50;;;;;;;2.22;1.63;;;;;;;23.29;51.19;98905.69;4878889;29;20028;-73
2023/09/05 09:04:17;;;;;;;2.90;2.08;;;;;;;23.43;50.69;98915.88;4897926;29;20470;-70
2023/09/05 09:06:43;;;;;;;4.45;2.08;;;;;;;23.42;50.92;98904.06;4895954;29;20033;-74
2023/09/05 09:09:34;;;;;;;3.58;1.90;;;;;;;23.55;51.51;98907.91;4879739;29;20451;-73
2023/09/05 09:12:00;;;;;;;2.33;1.92;;;;;;;23.65;50.70;98910.38;4899996;29;20068;-74
2023/09/05 09:14:25;;;;;;;1.98;1.77;;;;;;;23.69;51.02;98897.63;4894781;29;20055;-74
2023/09/05 09:16:50;;;;;;;2.30;1.80;;;;;;;23.75;50.63;98907.41;4897869;29;20032;-74
2023/09/05 09:19:16;;;;;;;3.15;2.00;;;;;;;23.79;49.87;98911.13;4898548;29;20345;-75
2023/09/05 09:21:41;;;;;;;3.20;1.90;;;;;;;23.80;49.54;98899.03;4882588;29;20048;-75
2023/09/05 09:24:11;;;;;;;4.25;1.85;;;;;;;23.80;48.84;98918.28;4898260;29;20028;-74
2023/09/05 09:26:41;;;;;;;1.92;1.73;;;;;;;23.67;49.31;98880.63;4883201;29;20048;-75
2023/09/05 09:29:09;;;;;;;2.25;1.77;;;;;;;23.73;50.18;98871.97;4899654;29;20043;-75
2023/09/05 09:31:34;;;;;;;4.45;2.08;;;;;;;23.98;48.59;98900.75;4882461;29;20112;-74
2023/09/05 09:34:00;;;;;;;2.50;1.90;;;;;;;24.11;48.23;98899.88;4882782;29;20127;-75
2023/09/05 09:36:36;;;;;;;2.33;1.75;;;;;;;24.04;48.93;98882.97;4898217;29;20406;-74
2023/09/05 09:39:10;;;;;;;4.57;2.20;;;;;;;24.24;48.40;98899.00;4898244;29;20036;-74
2023/09/05 09:41:46;;;;;;;3.10;1.90;;;;;;;24.27;48.17;98895.59;4897823;29;20041;-73
2023/09/05 09:44:28;;;;;;;1.98;1.77;;;;;;;24.26;48.06;98891.22;4910271;29;20044;-74
2023/09/05 09:46:55;;;;;;;2.50;1.80;;;;;;;24.40;47.54;98891.13;4913840;29;20123;-75
2023/09/05 09:49:23;;;;;;;2.33;1.80;;;;;;;24.49;48.59;98890.03;4913702;29;20035;-75
2023/09/05 09:51:54;;;;;;;4.47;2.13;;;;;;;24.49;50.66;98889.22;4907541;29;20032;-74
2023/09/05 09:54:29;;;;;;;3.25;1.60;;;;;;;24.54;48.55;98878.06;4879711;29;20487;-73
2023/09/05 09:56:57;;;;;;;4.07;2.10;;;;;;;24.55;47.54;98888.75;4889928;29;20052;-74
2023/09/05 09:59:26;;;;;;;2.30;1.80;;;;;;;24.65;47.57;98893.97;4882028;29;20041;-74
2023/09/05 10:01:54;;;;;;;4.00;2.15;;;;;;;24.69;47.37;98899.69;4874297;29;20044;-75
2023/09/05 10:04:21;;;;;;;3.83;2.00;;;;;;;24.77;46.55;98889.81;4897768;29;20050;-74
2023/09/05 10:06:48;;;;;;;2.50;1.90;;;;;;;24.81;46.15;98890.81;4882159;29;20414;-74
2023/09/05 10:09:15;;;;;;;2.58;1.83;;;;;;;24.77;47.76;98878.81;4897764;29;20634;-74
2023/09/05 10:11:41;;;;;;;3.58;1.98;;;;;;;24.81;47.02;98885.31;4882088;29;20427;-74
2023/09/05 10:14:06;;;;;;;3.90;2.10;;;;;;;24.87;46.00;98889.53;4897522;29;20025;-75
2023/09/05 10:16:32;;;;;;;4.50;2.20;;;;;;;24.89;47.10;98895.53;4879092;29;20044;-73
2023/09/05 10:18:59;;;;;;;3.78;2.03;;;;;;;25.04;46.64;98889.56;4898239;29;20021;-72
2023/09/05 10:21:25;;;;;;;2.55;1.98;;;;;;;24.95;45.50;98875.75;4898014;29;20381;-75
2023/09/05 10:23:53;;;;;;;2.45;1.90;;;;;;;25.09;45.28;98883.88;4897222;29;20507;-73
2023/09/05 10:26:19;;;;;;;2.08;1.70;;;;;;;25.16;45.55;98881.47;4897214;29;20402;-72
2023/09/05 10:28:44;;;;;;;3.85;2.00;;;;;;;25.18;45.36;98877.25;4896103;29;20494;-76
2023/09/05 10:31:13;;;;;;;3.65;1.90;;;;;;;25.25;45.62;98868.53;4881686;29;20041;-73
2023/09/05 10:33:39;;;;;;;2.60;2.00;;;;;;;25.36;44.79;98878.09;4898371;29;20092;-72
2023/09/05 10:36:06;;;;;;;2.65;1.88;;;;;;;25.39;44.84;98880.22;4897184;29;20176;-74
2023/09/05 10:38:36;;;;;;;1.90;1.70;;;;;;;25.50;45.31;98870.50;4881802;29;20025;-72
2023/09/05 10:41:02;;;;;;;2.40;1.60;;;;;;;25.53;45.99;98863.50;4896931;29;20040;-71
2023/09/05 10:43:28;;;;;;;2.33;2.05;;;;;;;25.60;44.93;98870.13;4898291;29;20115;-74
2023/09/05 10:45:55;;;;;;;2.20;2.00;;;;;;;25.57;44.89;98854.25;4904189;29;20036;-74
2023/09/05 10:48:32;;;;;;;2.00;1.80;;;;;;;25.70;45.60;98869.81;4912519;29;20024;-75
2023/09/05 10:51:06;;;;;;;2.65;1.70;;;;;;;25.77;46.05;98858.28;4896693;29;20044;-73
2023/09/05 10:53:34;;;;;;;4.10;1.83;;;;;;;25.73;45.16;98841.56;4896788;29;20036;-73
2023/09/05 10:56:00;;;;;;;2.50;1.75;;;;;;;25.92;44.12;98858.59;4880987;29;20029;-73
2023/09/05 10:58:53;;;;;;;2.00;1.65;;;;;;;26.01;44.13;98872.34;4893524;29;20510;-74
2023/09/05 11:01:29;;;;;;;3.60;1.90;;;;;;;26.09;43.97;98866.81;4884088;29;20037;-75
2023/09/05 11:04:03;;;;;;;2.65;1.70;;;;;;;26.17;44.52;98861.63;4907407;29;20119;-75
2023/09/05 11:06:30;;;;;;;2.20;1.83;;;;;;;26.20;44.13;98849.91;4880797;29;20454;-75
2023/09/05 11:09:06;;;;;;;2.08;1.70;;;;;;;26.27;43.69;98844.69;4912136;29;20028;-75
2023/09/05 11:11:36;;;;;;;3.00;1.45;;;;;;;26.41;43.56;98837.00;4881577;29;20040;-74
2023/09/05 11:14:03;;;;;;;1.88;1.65;;;;;;;26.51;44.29;98842.94;4880780;29;20047;-75
2023/09/05 11:16:29;;;;;;;2.97;1.60;;;;;;;26.47;44.38;98832.88;4897648;29;20029;-75
2023/09/05 11:18:56;;;;;;;3.83;1.60;;;;;;;26.54;43.21;98825.69;4897451;29;20093;-72
2023/09/05 11:21:22;;;;;;;3.80;1.80;;;;;;;26.70;43.15;98835.03;4880652;29;20522;-72
2023/09/05 11:23:54;;;;;;;2.88;1.70;;;;;;;26.70;42.84;98817.63;4880786;29;20052;-73
2023/09/05 11:26:20;;;;;;;4.32;2.00;;;;;;;26.77;43.75;98825.47;4896332;29;20411;-73
2023/09/05 11:28:51;;;;;;;2.30;1.55;;;;;;;26.86;43.07;98829.78;4896438;29;20043;-72
2023/09/05 11:31:17;;;;;;;2.95;1.63;;;;;;;26.91;41.81;98823.25;4895932;29;20487;-74
2023/09/05 11:33:43;;;;;;;2.83;2.10;;;;;;;26.85;41.98;98817.09;4880239;29;20027;-73